MMGM/GYM METAR and TAF weather

Enter ICAO airport designator
Station Type Date Time Source
MMGM METAR 2022/06/26 01:46 UTC NOAA

MMGM 260146Z 23012KT 10SM FEW180 31/26 A2979 RMK 8/030


Station Type Date Time Source
MMGM Decoded METAR 2022/06/26 01:46 UTC NOAA

Guaymas International Airport, Mexico (MMGM) 27-58N 110-56W
Jun 25, 2022 - 09:46 PM EDT / 2022.06.26 0146 UTC
Wind: from the SW (230 degrees) at 14 MPH (12 KT):0
Visibility: 10 mile(s):0
Sky conditions: mostly clear
Temperature: 87 F (31 C)
Heat index: 99.7 F (37.6 C):1
Dew Point: 78 F (26 C)
Relative Humidity: 74%
Pressure (altimeter): 29.79 in. Hg (1008 hPa)
ob: MMGM 260146Z 23012KT 10SM FEW180 31/26 A2979 RMK 8/030
cycle: 2

Station Type Date Time Source
MMGM TAF 2022/06/26 06:46 UTC NOAA

TAF MMGM 260438Z 2606/2706 23008KT P6SM SCT015
FM261800 23012KT P6SM SCT020
FM270200 23010KT P6SM BKN020CB OVC080
TEMPO 2702/2706 3SM TSRA

Example: see airport list